createdAt,value
2023-02-23T00:01:47.222Z,74.25
2023-02-23T00:04:14.213Z,74.16
2023-02-23T00:06:41.183Z,75.01
2023-02-23T00:09:23.943Z,75.08
2023-02-23T00:11:52.738Z,75.44
2023-02-23T00:14:20.117Z,75.76
2023-02-23T00:16:47.107Z,75.39
2023-02-23T00:19:14.350Z,75.07
2023-02-23T00:21:41.551Z,74.90
2023-02-23T00:24:11.146Z,75.07
2023-02-23T00:26:39.269Z,75.16
2023-02-23T00:29:10.554Z,74.95
2023-02-23T00:31:38.269Z,74.84
2023-02-23T00:34:05.781Z,74.72
2023-02-23T00:36:34.973Z,74.86
2023-02-23T00:39:20.781Z,75.32
2023-02-23T00:41:51.952Z,75.24
2023-02-23T00:44:21.073Z,75.42
2023-02-23T00:46:50.800Z,75.45
2023-02-23T00:49:19.529Z,75.45
2023-02-23T00:51:46.666Z,75.71
2023-02-23T00:54:15.860Z,75.86
2023-02-23T00:56:43.054Z,75.96
2023-02-23T00:59:11.603Z,76.24
2023-02-23T01:01:41.190Z,76.27
2023-02-23T01:04:09.283Z,76.22
2023-02-23T01:06:37.242Z,76.38
2023-02-23T01:09:14.204Z,76.17
2023-02-23T01:11:41.671Z,76.19
2023-02-23T01:14:09.929Z,76.08
2023-02-23T01:16:38.330Z,76.21
2023-02-23T01:19:06.681Z,76.27
2023-02-23T01:21:37.169Z,76.05
2023-02-23T01:24:05.079Z,76.28
2023-02-23T01:26:38.046Z,76.22
2023-02-23T01:29:14.616Z,76.19
2023-02-23T01:31:47.693Z,76.54
2023-02-23T01:34:21.030Z,76.81
2023-02-23T01:36:48.468Z,76.77
2023-02-23T01:39:18.041Z,76.62
2023-02-23T01:41:45.576Z,76.35
2023-02-23T01:44:12.514Z,76.34
2023-02-23T01:46:43.176Z,76.80
2023-02-23T01:49:19.505Z,76.99
2023-02-23T01:51:51.909Z,76.93
2023-02-23T01:54:24.044Z,77.02
2023-02-23T01:56:57.736Z,76.94
2023-02-23T01:59:37.640Z,77.08
2023-02-23T02:02:04.886Z,76.99
2023-02-23T02:04:43.843Z,76.99
2023-02-23T02:07:17.837Z,77.00
2023-02-23T02:10:08.186Z,77.41
2023-02-23T02:12:35.138Z,77.46
2023-02-23T02:15:05.089Z,77.62
2023-02-23T02:17:56.396Z,77.52
2023-02-23T02:20:42.377Z,77.34
2023-02-23T02:23:30.869Z,77.54
2023-02-23T02:26:23.800Z,77.50
2023-02-23T02:28:50.732Z,77.81
2023-02-23T02:31:39.454Z,77.84
2023-02-23T02:34:37.199Z,77.66
2023-02-23T02:37:18.794Z,78.11
2023-02-23T02:40:18.028Z,78.11
2023-02-23T02:43:08.048Z,77.92
2023-02-23T02:45:52.817Z,77.74
2023-02-23T02:48:46.662Z,77.47
2023-02-23T02:51:25.436Z,77.34
2023-02-23T02:54:06.039Z,77.44
2023-02-23T02:56:39.759Z,77.82
2023-02-23T02:59:30.183Z,77.54
2023-02-23T03:02:16.237Z,77.37
2023-02-23T03:05:02.367Z,77.32
2023-02-23T03:07:57.121Z,77.30
2023-02-23T03:10:48.548Z,77.11
2023-02-23T03:13:40.001Z,77.23
2023-02-23T03:17:04.570Z,77.56
2023-02-23T03:19:57.561Z,77.43
2023-02-23T03:23:22.620Z,77.30
2023-02-23T03:26:32.352Z,77.49
2023-02-23T03:29:19.277Z,78.05
2023-02-23T03:32:17.451Z,78.03
2023-02-23T03:35:08.388Z,78.31
2023-02-23T03:38:10.614Z,78.16
2023-02-23T03:40:59.931Z,78.36
2023-02-23T03:43:55.467Z,78.48
2023-02-23T03:46:45.129Z,78.23
2023-02-23T03:49:32.534Z,77.97
2023-02-23T03:52:25.533Z,78.01
2023-02-23T03:55:18.997Z,77.81
2023-02-23T03:58:07.042Z,77.73
2023-02-23T04:00:58.966Z,77.71
2023-02-23T04:03:46.846Z,77.69
2023-02-23T04:06:35.278Z,77.62
2023-02-23T04:09:24.844Z,77.84
2023-02-23T04:12:22.591Z,78.02
2023-02-23T04:15:06.567Z,77.92
2023-02-23T04:17:34.042Z,77.98
2023-02-23T04:20:01.062Z,77.76
2023-02-23T04:22:28.159Z,77.92
2023-02-23T04:24:55.799Z,77.92
2023-02-23T04:27:22.857Z,78.22
2023-02-23T04:29:49.843Z,78.36
2023-02-23T04:32:20.356Z,78.34
2023-02-23T04:34:47.497Z,77.97
2023-02-23T04:37:15.949Z,77.62
2023-02-23T04:39:47.886Z,77.63
2023-02-23T04:42:18.479Z,77.59
2023-02-23T04:44:45.719Z,77.77
2023-02-23T04:47:15.300Z,78.01
2023-02-23T04:49:43.561Z,77.92
2023-02-23T04:52:10.696Z,77.53
2023-02-23T04:54:41.342Z,77.28
2023-02-23T04:57:09.514Z,77.18
2023-02-23T04:59:36.932Z,77.38
2023-02-23T05:02:04.153Z,77.49
2023-02-23T05:04:31.491Z,77.74
2023-02-23T05:06:58.485Z,78.07
2023-02-23T05:09:25.557Z,78.18
2023-02-23T05:11:52.554Z,78.17
2023-02-23T05:14:19.521Z,77.97
2023-02-23T05:16:46.581Z,78.03
2023-02-23T05:19:13.681Z,77.87
2023-02-23T05:21:41.333Z,77.81
2023-02-23T05:24:08.747Z,77.81
2023-02-23T05:26:36.435Z,77.71
2023-02-23T05:29:03.871Z,77.72
2023-02-23T05:31:30.984Z,77.68
2023-02-23T05:33:58.027Z,77.66
2023-02-23T05:36:25.002Z,77.51
2023-02-23T05:38:52.020Z,77.72
2023-02-23T05:41:21.397Z,77.69
2023-02-23T05:43:51.735Z,77.90
2023-02-23T05:46:25.488Z,78.06
2023-02-23T05:48:58.523Z,78.24
2023-02-23T05:51:25.626Z,78.26
2023-02-23T05:53:52.557Z,78.34
2023-02-23T05:56:20.649Z,78.32
2023-02-23T05:58:48.863Z,78.27
2023-02-23T06:01:17.203Z,78.27
2023-02-23T06:03:45.164Z,78.22
2023-02-23T06:06:12.698Z,78.29
2023-02-23T06:08:39.885Z,78.36
2023-02-23T06:11:07.336Z,78.40
2023-02-23T06:13:34.584Z,78.44
2023-02-23T06:16:02.351Z,78.55
2023-02-23T06:18:29.895Z,78.52
2023-02-23T06:21:00.574Z,78.37
2023-02-23T06:23:29.037Z,78.46
2023-02-23T06:25:56.420Z,78.32
2023-02-23T06:28:23.581Z,78.25
2023-02-23T06:30:54.492Z,78.20
2023-02-23T06:33:22.134Z,78.25
2023-02-23T06:35:49.231Z,78.14
2023-02-23T06:38:16.411Z,78.00
2023-02-23T06:40:43.442Z,77.61
2023-02-23T06:43:10.966Z,77.56
2023-02-23T06:45:38.719Z,77.55
2023-02-23T06:48:06.261Z,77.62
2023-02-23T06:50:33.265Z,77.35
2023-02-23T06:53:00.216Z,77.20
2023-02-23T06:55:27.216Z,77.31
2023-02-23T06:57:54.890Z,77.44
2023-02-23T07:00:22.362Z,77.43
2023-02-23T07:02:49.510Z,77.40
2023-02-23T07:05:16.803Z,76.96
2023-02-23T07:07:44.969Z,76.75
2023-02-23T07:10:12.374Z,76.38
2023-02-23T07:12:39.410Z,76.18
2023-02-23T07:15:07.253Z,75.58
2023-02-23T07:17:34.304Z,75.82
2023-02-23T07:20:02.198Z,75.47
2023-02-23T07:22:30.886Z,75.14
2023-02-23T07:24:57.870Z,73.15
2023-02-23T07:27:24.902Z,72.72
2023-02-23T07:29:51.946Z,73.36
2023-02-23T07:32:19.122Z,72.42
2023-02-23T07:34:47.206Z,71.75
2023-02-23T07:37:14.454Z,71.97
2023-02-23T07:39:41.479Z,71.97
2023-02-23T07:42:08.455Z,70.63
2023-02-23T07:44:35.925Z,70.33
2023-02-23T07:47:03.342Z,70.51
2023-02-23T07:49:30.815Z,70.28
2023-02-23T07:51:58.151Z,69.50
2023-02-23T07:54:26.019Z,69.22
2023-02-23T07:56:53.127Z,67.93
2023-02-23T07:59:21.276Z,68.54
2023-02-23T08:01:48.290Z,67.96
2023-02-23T08:04:15.218Z,67.27
2023-02-23T08:06:42.804Z,67.27
2023-02-23T08:09:11.246Z,66.44
2023-02-23T08:11:38.246Z,66.16
2023-02-23T08:14:05.267Z,65.78
2023-02-23T08:16:33.091Z,65.51
2023-02-23T08:19:00.955Z,66.18
2023-02-23T08:21:29.641Z,65.19
2023-02-23T08:23:57.680Z,65.13
2023-02-23T08:26:25.149Z,64.78
2023-02-23T08:28:53.743Z,64.04
2023-02-23T08:31:23.309Z,63.80
2023-02-23T08:33:51.453Z,63.52
2023-02-23T08:36:20.089Z,63.29
2023-02-23T08:38:47.377Z,63.08
2023-02-23T08:41:15.213Z,62.80
2023-02-23T08:43:42.447Z,62.53
2023-02-23T08:46:11.241Z,62.80
2023-02-23T08:48:39.918Z,62.35
2023-02-23T08:51:07.619Z,62.23
2023-02-23T08:53:35.311Z,62.19
2023-02-23T08:56:05.564Z,61.70
2023-02-23T08:58:33.537Z,61.36
2023-02-23T09:01:01.581Z,61.01
2023-02-23T09:03:30.137Z,60.81
2023-02-23T09:06:04.060Z,60.44
2023-02-23T09:08:31.098Z,60.08
2023-02-23T09:10:58.044Z,59.96
2023-02-23T09:13:25.021Z,59.92
2023-02-23T09:15:51.991Z,59.59
2023-02-23T09:18:19.006Z,59.15
2023-02-23T09:20:46.016Z,59.16
2023-02-23T09:23:13.046Z,58.74
2023-02-23T09:25:44.009Z,58.55
2023-02-23T09:28:13.106Z,58.68
2023-02-23T09:30:41.830Z,58.19
2023-02-23T09:33:09.911Z,58.08
2023-02-23T09:35:37.116Z,57.50
2023-02-23T09:38:06.387Z,57.44
2023-02-23T09:40:46.666Z,56.84
2023-02-23T09:43:16.339Z,56.25
2023-02-23T09:45:57.769Z,56.23
2023-02-23T09:48:27.980Z,56.72
2023-02-23T09:50:57.359Z,56.16
2023-02-23T09:53:31.193Z,55.95
2023-02-23T09:56:00.380Z,55.92
2023-02-23T09:58:32.003Z,55.19
2023-02-23T10:01:04.897Z,54.81
2023-02-23T10:03:37.167Z,54.56
2023-02-23T10:06:08.707Z,54.11
2023-02-23T10:08:48.433Z,53.72
2023-02-23T10:11:51.038Z,53.33
2023-02-23T10:14:46.875Z,52.46
2023-02-23T10:17:16.773Z,52.41
2023-02-23T10:20:22.665Z,52.07
2023-02-23T10:22:50.761Z,51.75
2023-02-23T10:25:25.127Z,51.51
2023-02-23T10:27:55.268Z,51.22
2023-02-23T10:30:28.998Z,51.57
2023-02-23T10:33:04.123Z,51.55
2023-02-23T10:35:31.665Z,51.18
2023-02-23T10:38:00.560Z,50.99
2023-02-23T10:40:31.619Z,50.97
2023-02-23T10:43:01.920Z,51.21
2023-02-23T10:45:33.944Z,50.98
2023-02-23T10:48:07.054Z,50.78
2023-02-23T10:50:36.574Z,50.96
2023-02-23T10:53:16.038Z,51.21
2023-02-23T10:55:47.779Z,51.15
2023-02-23T10:58:18.535Z,50.60
2023-02-23T11:01:04.697Z,50.22
2023-02-23T11:03:43.009Z,50.27
2023-02-23T11:06:32.712Z,50.49
2023-02-23T11:09:24.850Z,49.91
2023-02-23T11:12:02.072Z,49.55
2023-02-23T11:14:30.903Z,48.90
2023-02-23T11:16:59.802Z,49.25
2023-02-23T11:19:34.111Z,49.17
2023-02-23T11:22:01.421Z,48.51
2023-02-23T11:24:33.435Z,47.90
2023-02-23T11:27:07.412Z,47.17
2023-02-23T11:29:38.693Z,47.19
2023-02-23T11:32:20.727Z,47.22
2023-02-23T11:35:08.540Z,46.64
2023-02-23T11:37:36.743Z,46.48
2023-02-23T11:40:21.651Z,45.99
2023-02-23T11:43:06.784Z,46.20
2023-02-23T11:45:44.138Z,45.95
2023-02-23T11:48:21.850Z,46.04
2023-02-23T11:50:49.711Z,45.84
2023-02-23T11:53:28.020Z,45.84
2023-02-23T11:56:02.148Z,45.94
2023-02-23T11:58:51.090Z,45.58
2023-02-23T12:01:23.374Z,46.00
2023-02-23T12:03:56.830Z,46.05
2023-02-23T12:06:30.703Z,46.02
2023-02-23T12:09:12.468Z,46.16
2023-02-23T12:11:48.419Z,45.86
2023-02-23T12:14:40.631Z,45.90
2023-02-23T12:17:38.223Z,46.09
2023-02-23T12:20:14.891Z,46.17
2023-02-23T12:22:47.420Z,45.95
2023-02-23T12:25:29.421Z,46.02
2023-02-23T12:28:18.785Z,45.92
2023-02-23T12:30:54.213Z,45.78
2023-02-23T12:33:29.607Z,46.18
2023-02-23T12:36:03.364Z,45.77
2023-02-23T12:38:52.117Z,45.78
2023-02-23T12:41:39.628Z,45.65
2023-02-23T12:44:31.090Z,45.84
2023-02-23T12:47:04.407Z,45.83
2023-02-23T12:49:38.798Z,45.72
2023-02-23T12:52:39.457Z,45.75
2023-02-23T12:55:11.544Z,45.50
2023-02-23T12:58:05.676Z,45.74
2023-02-23T13:00:52.586Z,45.85
2023-02-23T13:03:29.124Z,45.89
2023-02-23T13:06:11.088Z,46.03
2023-02-23T13:08:56.638Z,45.98
2023-02-23T13:11:48.293Z,45.73
2023-02-23T13:14:29.275Z,45.29
2023-02-23T13:17:06.543Z,45.09
2023-02-23T13:19:44.311Z,45.32
2023-02-23T13:22:30.163Z,45.24
2023-02-23T13:25:04.549Z,45.07
2023-02-23T13:27:40.034Z,44.88
2023-02-23T13:30:11.499Z,44.60
2023-02-23T13:32:39.114Z,44.88
2023-02-23T13:35:13.170Z,44.84
2023-02-23T13:37:45.640Z,44.70
2023-02-23T13:40:29.336Z,44.83
2023-02-23T13:43:16.960Z,44.78
2023-02-23T13:45:58.792Z,44.71
2023-02-23T13:48:56.239Z,44.82
2023-02-23T13:51:30.682Z,44.71
2023-02-23T13:53:59.307Z,44.71
2023-02-23T13:56:29.175Z,44.72
2023-02-23T13:59:00.588Z,44.60
2023-02-23T14:01:44.755Z,45.03
2023-02-23T14:04:21.366Z,45.13
2023-02-23T14:07:28.130Z,45.38
2023-02-23T14:09:58.804Z,45.39
2023-02-23T14:12:39.635Z,45.16
2023-02-23T14:15:24.839Z,45.57
2023-02-23T14:18:00.226Z,45.69
2023-02-23T14:20:39.384Z,45.90
2023-02-23T14:23:17.838Z,45.80
2023-02-23T14:25:46.575Z,45.82
2023-02-23T14:28:30.147Z,45.88
2023-02-23T14:31:08.093Z,45.90
2023-02-23T14:33:37.653Z,46.13
2023-02-23T14:36:23.355Z,46.07
2023-02-23T14:39:13.694Z,46.27
2023-02-23T14:41:52.825Z,46.38
2023-02-23T14:44:29.898Z,46.50
2023-02-23T14:47:08.360Z,46.48
2023-02-23T14:49:39.952Z,46.67
2023-02-23T14:52:28.511Z,46.92
2023-02-23T14:55:21.039Z,46.84
2023-02-23T14:57:49.178Z,47.14
2023-02-23T15:00:23.985Z,47.35
2023-02-23T15:03:08.736Z,47.61
2023-02-23T15:05:42.481Z,47.62
2023-02-23T15:08:14.895Z,47.83
2023-02-23T15:10:44.546Z,47.97
2023-02-23T15:13:31.151Z,48.08
2023-02-23T15:16:03.281Z,48.53
2023-02-23T15:18:36.995Z,48.51
2023-02-23T15:21:20.045Z,49.00
2023-02-23T15:24:24.067Z,49.00
2023-02-23T15:26:51.992Z,49.09
2023-02-23T15:29:22.294Z,49.43
2023-02-23T15:31:52.381Z,49.78
2023-02-23T15:34:24.291Z,49.89
2023-02-23T15:37:01.190Z,50.06
2023-02-23T15:40:09.658Z,50.19
2023-02-23T15:42:44.136Z,50.32
2023-02-23T15:45:29.573Z,50.75
2023-02-23T15:48:04.986Z,50.84
2023-02-23T15:50:37.290Z,51.26
2023-02-23T15:53:19.122Z,51.31
2023-02-23T15:55:47.350Z,52.07
2023-02-23T15:58:24.369Z,52.58
2023-02-23T16:00:58.008Z,52.39
2023-02-23T16:03:37.495Z,52.66
2023-02-23T16:06:25.813Z,52.48
2023-02-23T16:08:58.153Z,52.78
2023-02-23T16:11:26.386Z,52.93
2023-02-23T16:13:54.462Z,53.39
2023-02-23T16:16:24.826Z,53.67
2023-02-23T16:18:54.881Z,54.22
2023-02-23T16:21:24.487Z,54.92
2023-02-23T16:23:54.882Z,54.73
2023-02-23T16:26:33.936Z,55.46
2023-02-23T16:29:04.009Z,55.31
2023-02-23T16:31:44.508Z,55.79
2023-02-23T16:34:47.775Z,55.61
2023-02-23T16:37:22.582Z,55.76
2023-02-23T16:39:49.692Z,55.87
2023-02-23T16:42:33.227Z,56.01
2023-02-23T16:45:01.545Z,56.38
2023-02-23T16:47:35.813Z,56.49
2023-02-23T16:50:21.095Z,57.94
2023-02-23T16:52:53.758Z,57.65
2023-02-23T16:55:27.298Z,58.22
2023-02-23T16:57:55.934Z,58.37
2023-02-23T17:00:29.240Z,57.98
2023-02-23T17:02:57.696Z,58.73
2023-02-23T17:05:24.891Z,58.47
2023-02-23T17:07:53.221Z,58.85
2023-02-23T17:10:46.242Z,59.60
2023-02-23T17:13:22.711Z,59.10
2023-02-23T17:15:53.043Z,58.96
2023-02-23T17:18:31.050Z,58.75
2023-02-23T17:21:01.631Z,59.06
2023-02-23T17:23:37.744Z,59.61
2023-02-23T17:26:10.875Z,59.24
2023-02-23T17:28:39.967Z,59.07
2023-02-23T17:31:07.503Z,59.14
2023-02-23T17:33:36.580Z,59.57
2023-02-23T17:36:05.622Z,59.70
2023-02-23T17:38:35.291Z,59.70
2023-02-23T17:41:12.755Z,59.64
2023-02-23T17:43:40.142Z,59.80
2023-02-23T17:46:08.073Z,59.97
2023-02-23T17:48:35.334Z,60.01
2023-02-23T17:51:09.638Z,60.37
2023-02-23T17:53:36.647Z,60.12
2023-02-23T17:56:04.364Z,60.39
2023-02-23T17:58:31.670Z,60.51
2023-02-23T18:01:02.189Z,60.45
2023-02-23T18:03:31.556Z,60.79
2023-02-23T18:06:08.384Z,60.74
2023-02-23T18:08:37.916Z,60.74
2023-02-23T18:11:05.343Z,60.63
2023-02-23T18:13:35.836Z,61.15
2023-02-23T18:16:08.494Z,61.04
2023-02-23T18:18:41.804Z,61.20
2023-02-23T18:21:14.862Z,61.19
2023-02-23T18:23:42.146Z,61.09
2023-02-23T18:26:21.094Z,61.15
2023-02-23T18:28:48.412Z,61.60
2023-02-23T18:31:24.768Z,61.79
2023-02-23T18:33:55.788Z,61.80
2023-02-23T18:36:29.317Z,61.77
2023-02-23T18:38:59.269Z,61.79
2023-02-23T18:41:30.266Z,62.97
2023-02-23T18:44:01.668Z,63.29
2023-02-23T18:46:29.730Z,63.45
2023-02-23T18:48:56.936Z,63.33
2023-02-23T18:51:25.162Z,63.15
2023-02-23T18:53:53.097Z,63.21
2023-02-23T18:56:27.488Z,63.51
2023-02-23T18:58:58.639Z,64.26
2023-02-23T19:01:32.844Z,64.76
2023-02-23T19:04:02.016Z,64.82
2023-02-23T19:06:30.033Z,64.44
2023-02-23T19:08:59.453Z,64.39
2023-02-23T19:11:30.030Z,64.21
2023-02-23T19:14:00.443Z,64.27
2023-02-23T19:16:30.757Z,64.43
2023-02-23T19:18:59.580Z,64.60
2023-02-23T19:21:27.555Z,64.98
2023-02-23T19:23:57.981Z,65.00
2023-02-23T19:26:26.123Z,65.80
2023-02-23T19:28:53.478Z,65.46
2023-02-23T19:31:23.883Z,65.23
2023-02-23T19:33:53.485Z,66.01
2023-02-23T19:36:23.165Z,66.10
2023-02-23T19:38:50.336Z,66.62
2023-02-23T19:41:19.724Z,66.34
2023-02-23T19:43:47.058Z,66.52
2023-02-23T19:46:16.742Z,67.34
2023-02-23T19:48:51.254Z,67.87
2023-02-23T19:51:20.541Z,67.10
2023-02-23T19:53:48.198Z,67.25
2023-02-23T19:56:16.721Z,66.71
2023-02-23T19:58:46.127Z,66.71
2023-02-23T20:01:17.130Z,66.58
2023-02-23T20:03:54.685Z,67.99
2023-02-23T20:06:27.296Z,67.32
2023-02-23T20:09:01.943Z,66.81
2023-02-23T20:11:29.595Z,66.95
2023-02-23T20:13:57.309Z,67.00
2023-02-23T20:16:29.249Z,67.17
2023-02-23T20:18:57.599Z,67.29
2023-02-23T20:21:26.337Z,67.05
2023-02-23T20:23:55.407Z,67.30
2023-02-23T20:26:28.678Z,67.39
2023-02-23T20:28:57.183Z,67.30
2023-02-23T20:31:31.423Z,67.55
2023-02-23T20:34:02.643Z,68.26
2023-02-23T20:36:29.853Z,68.96
2023-02-23T20:38:57.031Z,69.33
2023-02-23T20:41:27.456Z,69.65
2023-02-23T20:43:55.697Z,69.64
2023-02-23T20:46:23.734Z,70.19
2023-02-23T20:48:50.926Z,70.90
2023-02-23T20:51:18.686Z,70.82
2023-02-23T20:53:49.261Z,70.10
2023-02-23T20:56:21.644Z,70.53
2023-02-23T20:58:49.515Z,70.57
2023-02-23T21:01:21.943Z,69.91
2023-02-23T21:03:52.843Z,69.94
2023-02-23T21:06:22.430Z,69.88
2023-02-23T21:08:50.464Z,69.79
2023-02-23T21:11:21.411Z,70.45
2023-02-23T21:13:48.685Z,70.98
2023-02-23T21:16:18.288Z,70.48
2023-02-23T21:18:45.707Z,70.14
2023-02-23T21:21:15.087Z,70.16
2023-02-23T21:23:45.318Z,69.95
2023-02-23T21:26:15.524Z,69.97
2023-02-23T21:28:44.831Z,70.12
2023-02-23T21:31:13.389Z,70.23
2023-02-23T21:33:42.587Z,70.50
2023-02-23T21:36:10.654Z,70.94
2023-02-23T21:38:39.481Z,70.50
2023-02-23T21:41:07.357Z,70.92
2023-02-23T21:43:36.404Z,71.11
2023-02-23T21:46:11.787Z,71.44
2023-02-23T21:48:39.262Z,71.56
2023-02-23T21:51:11.038Z,71.43
2023-02-23T21:53:39.171Z,71.26
2023-02-23T21:56:11.010Z,71.92
2023-02-23T21:58:39.666Z,71.71
2023-02-23T22:01:11.859Z,71.17
2023-02-23T22:03:44.486Z,71.22
2023-02-23T22:06:16.978Z,71.05
2023-02-23T22:08:45.107Z,71.01
2023-02-23T22:11:16.821Z,71.00
2023-02-23T22:13:45.229Z,71.12
2023-02-23T22:16:15.050Z,70.99
2023-02-23T22:18:42.742Z,71.25
2023-02-23T22:21:13.913Z,71.44
2023-02-23T22:23:46.369Z,71.52
2023-02-23T22:26:27.649Z,71.30
2023-02-23T22:28:54.632Z,71.44
2023-02-23T22:31:21.975Z,71.48
2023-02-23T22:33:49.434Z,71.41
2023-02-23T22:36:17.894Z,71.65
2023-02-23T22:38:45.976Z,71.49
2023-02-23T22:41:13.382Z,71.86
2023-02-23T22:43:45.220Z,71.60
2023-02-23T22:46:14.882Z,71.62
2023-02-23T22:48:46.246Z,71.65
2023-02-23T22:51:15.411Z,71.70
2023-02-23T22:53:43.497Z,73.03
2023-02-23T22:56:12.168Z,73.73
2023-02-23T22:58:41.483Z,73.19
2023-02-23T23:01:11.406Z,73.31
2023-02-23T23:03:47.258Z,73.01
2023-02-23T23:06:17.459Z,73.41
2023-02-23T23:08:48.577Z,73.13
2023-02-23T23:11:19.318Z,73.15
2023-02-23T23:13:53.014Z,73.21
2023-02-23T23:16:31.581Z,73.99
2023-02-23T23:19:11.327Z,73.88
2023-02-23T23:21:40.531Z,73.36
2023-02-23T23:24:09.378Z,74.24
2023-02-23T23:26:40.095Z,74.20
2023-02-23T23:29:10.702Z,74.00
2023-02-23T23:31:39.780Z,73.96
2023-02-23T23:34:10.270Z,73.86
2023-02-23T23:36:45.564Z,73.70
2023-02-23T23:39:15.486Z,74.00
2023-02-23T23:41:47.264Z,74.63
2023-02-23T23:44:21.161Z,74.48
2023-02-23T23:46:50.198Z,74.50
2023-02-23T23:49:20.149Z,75.66
2023-02-23T23:51:49.614Z,75.13
2023-02-23T23:54:20.994Z,75.09
2023-02-23T23:56:49.101Z,76.04
2023-02-23T23:59:19.722Z,78.33
